sensor_id;sensor_type;location;lat;lon;timestamp;P1;durP1;ratioP1;P2;durP2;ratioP2
43327;SDS011;28923;45.412;10.852;2023-09-07T04:03:34;0.80;;;0.80;;
43327;SDS011;28923;45.412;10.852;2023-09-07T04:05:59;0.65;;;0.65;;
43327;SDS011;28923;45.412;10.852;2023-09-07T04:08:24;1.20;;;0.77;;
43327;SDS011;28923;45.412;10.852;2023-09-07T04:10:50;0.55;;;0.55;;
43327;SDS011;28923;45.412;10.852;2023-09-07T04:13:15;0.60;;;0.60;;
43327;SDS011;28923;45.412;10.852;2023-09-07T04:15:41;0.60;;;0.60;;
43327;SDS011;28923;45.412;10.852;2023-09-07T04:18:06;0.60;;;0.60;;
43327;SDS011;28923;45.412;10.852;2023-09-07T04:20:32;1.00;;;0.77;;
43327;SDS011;28923;45.412;10.852;2023-09-07T04:22:57;0.65;;;0.65;;
43327;SDS011;28923;45.412;10.852;2023-09-07T04:25:23;0.70;;;0.70;;
43327;SDS011;28923;45.412;10.852;2023-09-07T04:27:48;0.70;;;0.50;;
43327;SDS011;28923;45.412;10.852;2023-09-07T04:30:15;0.60;;;0.60;;
43327;SDS011;28923;45.412;10.852;2023-09-07T04:32:40;0.70;;;0.70;;
43327;SDS011;28923;45.412;10.852;2023-09-07T04:35:06;0.95;;;0.75;;
43327;SDS011;28923;45.412;10.852;2023-09-07T04:37:32;3.95;;;0.70;;
43327;SDS011;28923;45.412;10.852;2023-09-07T04:39:57;1.60;;;0.70;;
43327;SDS011;28923;45.412;10.852;2023-09-07T04:42:24;7.15;;;1.02;;
43327;SDS011;28923;45.412;10.852;2023-09-07T04:44:49;3.42;;;1.08;;
43327;SDS011;28923;45.412;10.852;2023-09-07T04:47:15;1.85;;;0.65;;
43327;SDS011;28923;45.412;10.852;2023-09-07T04:49:48;1.10;;;0.65;;
43327;SDS011;28923;45.412;10.852;2023-09-07T04:52:14;3.58;;;0.80;;
43327;SDS011;28923;45.412;10.852;2023-09-07T04:57:10;1.15;;;0.60;;
43327;SDS011;28923;45.412;10.852;2023-09-07T04:59:35;1.60;;;0.80;;
43327;SDS011;28923;45.412;10.852;2023-09-07T05:02:01;0.57;;;0.57;;
43327;SDS011;28923;45.412;10.852;2023-09-07T05:04:29;0.60;;;0.55;;
43327;SDS011;28923;45.412;10.852;2023-09-07T05:06:56;0.80;;;0.70;;
43327;SDS011;28923;45.412;10.852;2023-09-07T05:09:21;0.65;;;0.65;;
43327;SDS011;28923;45.412;10.852;2023-09-07T05:11:49;0.60;;;0.60;;
43327;SDS011;28923;45.412;10.852;2023-09-07T05:14:14;1.85;;;0.68;;
43327;SDS011;28923;45.412;10.852;2023-09-07T05:16:42;1.98;;;0.60;;
43327;SDS011;28923;45.412;10.852;2023-09-07T05:19:07;1.17;;;0.80;;
43327;SDS011;28923;45.412;10.852;2023-09-07T05:21:33;1.77;;;0.80;;
43327;SDS011;28923;45.412;10.852;2023-09-07T05:23:59;2.35;;;0.82;;
43327;SDS011;28923;45.412;10.852;2023-09-07T05:26:25;2.40;;;0.68;;
43327;SDS011;28923;45.412;10.852;2023-09-07T05:28:51;1.20;;;0.85;;
43327;SDS011;28923;45.412;10.852;2023-09-07T05:31:16;4.97;;;1.02;;
43327;SDS011;28923;45.412;10.852;2023-09-07T05:33:42;3.13;;;0.88;;
43327;SDS011;28923;45.412;10.852;2023-09-07T05:36:07;1.25;;;0.90;;
43327;SDS011;28923;45.412;10.852;2023-09-07T05:38:34;1.13;;;0.57;;
43327;SDS011;28923;45.412;10.852;2023-09-07T05:40:59;2.90;;;1.17;;
43327;SDS011;28923;45.412;10.852;2023-09-07T05:43:25;1.40;;;0.73;;
43327;SDS011;28923;45.412;10.852;2023-09-07T05:45:51;5.70;;;1.27;;
43327;SDS011;28923;45.412;10.852;2023-09-07T05:48:16;1.15;;;0.60;;
43327;SDS011;28923;45.412;10.852;2023-09-07T05:50:42;2.30;;;1.10;;
43327;SDS011;28923;45.412;10.852;2023-09-07T05:53:08;1.15;;;0.80;;
43327;SDS011;28923;45.412;10.852;2023-09-07T05:55:34;3.60;;;1.10;;
43327;SDS011;28923;45.412;10.852;2023-09-07T05:58:04;3.08;;;0.75;;
43327;SDS011;28923;45.412;10.852;2023-09-07T06:00:29;1.80;;;1.00;;
43327;SDS011;28923;45.412;10.852;2023-09-07T06:02:55;2.97;;;1.02;;
43327;SDS011;28923;45.412;10.852;2023-09-07T06:05:20;3.92;;;1.00;;
43327;SDS011;28923;45.412;10.852;2023-09-07T06:07:47;6.00;;;0.98;;
43327;SDS011;28923;45.412;10.852;2023-09-07T06:10:14;2.10;;;1.10;;
43327;SDS011;28923;45.412;10.852;2023-09-07T06:12:39;1.65;;;1.02;;
43327;SDS011;28923;45.412;10.852;2023-09-07T06:15:07;2.00;;;0.70;;
43327;SDS011;28923;45.412;10.852;2023-09-07T06:17:32;2.05;;;0.90;;
43327;SDS011;28923;45.412;10.852;2023-09-07T06:19:58;2.70;;;0.80;;
43327;SDS011;28923;45.412;10.852;2023-09-07T06:22:25;2.03;;;0.88;;
43327;SDS011;28923;45.412;10.852;2023-09-07T06:24:52;3.33;;;1.02;;
43327;SDS011;28923;45.412;10.852;2023-09-07T06:27:18;2.17;;;0.90;;
43327;SDS011;28923;45.412;10.852;2023-09-07T06:29:43;2.83;;;1.00;;
43327;SDS011;28923;45.412;10.852;2023-09-07T06:32:09;3.35;;;1.17;;
43327;SDS011;28923;45.412;10.852;2023-09-07T06:34:34;1.75;;;1.23;;
43327;SDS011;28923;45.412;10.852;2023-09-07T06:37:00;2.35;;;0.73;;
43327;SDS011;28923;45.412;10.852;2023-09-07T06:39:26;1.70;;;0.90;;
43327;SDS011;28923;45.412;10.852;2023-09-07T06:41:51;1.55;;;0.70;;
43327;SDS011;28923;45.412;10.852;2023-09-07T06:44:20;1.90;;;0.80;;
43327;SDS011;28923;45.412;10.852;2023-09-07T06:46:46;3.85;;;1.20;;
43327;SDS011;28923;45.412;10.852;2023-09-07T06:49:12;1.63;;;1.10;;
43327;SDS011;28923;45.412;10.852;2023-09-07T06:51:37;4.50;;;0.80;;
43327;SDS011;28923;45.412;10.852;2023-09-07T06:54:03;1.75;;;0.93;;
43327;SDS011;28923;45.412;10.852;2023-09-07T06:56:29;1.48;;;1.02;;
43327;SDS011;28923;45.412;10.852;2023-09-07T06:58:56;1.38;;;0.90;;
43327;SDS011;28923;45.412;10.852;2023-09-07T07:01:22;1.58;;;0.95;;
43327;SDS011;28923;45.412;10.852;2023-09-07T07:03:47;1.23;;;0.77;;
43327;SDS011;28923;45.412;10.852;2023-09-07T07:06:14;1.63;;;0.90;;
43327;SDS011;28923;45.412;10.852;2023-09-07T07:08:40;1.98;;;0.82;;
43327;SDS011;28923;45.412;10.852;2023-09-07T07:11:06;4.43;;;1.50;;
43327;SDS011;28923;45.412;10.852;2023-09-07T07:13:31;4.47;;;1.73;;
43327;SDS011;28923;45.412;10.852;2023-09-07T07:15:57;3.95;;;1.95;;
43327;SDS011;28923;45.412;10.852;2023-09-07T07:18:22;8.20;;;2.10;;
43327;SDS011;28923;45.412;10.852;2023-09-07T07:20:49;8.45;;;2.70;;
43327;SDS011;28923;45.412;10.852;2023-09-07T07:23:16;7.57;;;2.20;;
43327;SDS011;28923;45.412;10.852;2023-09-07T07:25:42;3.53;;;2.10;;
43327;SDS011;28923;45.412;10.852;2023-09-07T07:28:07;3.22;;;1.70;;
43327;SDS011;28923;45.412;10.852;2023-09-07T07:30:33;6.85;;;2.25;;
43327;SDS011;28923;45.412;10.852;2023-09-07T07:33:00;5.25;;;2.10;;
43327;SDS011;28923;45.412;10.852;2023-09-07T07:35:26;3.50;;;2.03;;
43327;SDS011;28923;45.412;10.852;2023-09-07T07:37:51;3.95;;;2.30;;
43327;SDS011;28923;45.412;10.852;2023-09-07T07:40:17;4.30;;;2.17;;
43327;SDS011;28923;45.412;10.852;2023-09-07T07:42:43;3.72;;;2.13;;
43327;SDS011;28923;45.412;10.852;2023-09-07T07:45:09;4.50;;;1.90;;
43327;SDS011;28923;45.412;10.852;2023-09-07T07:47:35;4.03;;;2.10;;
43327;SDS011;28923;45.412;10.852;2023-09-07T07:50:00;3.60;;;2.13;;
43327;SDS011;28923;45.412;10.852;2023-09-07T07:52:26;4.57;;;2.22;;
43327;SDS011;28923;45.412;10.852;2023-09-07T07:54:52;3.47;;;1.85;;
43327;SDS011;28923;45.412;10.852;2023-09-07T07:57:18;2.28;;;1.90;;
43327;SDS011;28923;45.412;10.852;2023-09-07T07:59:43;2.10;;;1.80;;
43327;SDS011;28923;45.412;10.852;2023-09-07T08:02:09;3.63;;;2.00;;
43327;SDS011;28923;45.412;10.852;2023-09-07T08:04:34;3.17;;;2.00;;
43327;SDS011;28923;45.412;10.852;2023-09-07T08:07:01;3.78;;;1.80;;
43327;SDS011;28923;45.412;10.852;2023-09-07T08:09:32;4.70;;;1.70;;
43327;SDS011;28923;45.412;10.852;2023-09-07T08:11:58;2.92;;;1.95;;
43327;SDS011;28923;45.412;10.852;2023-09-07T08:14:24;3.60;;;1.60;;
43327;SDS011;28923;45.412;10.852;2023-09-07T08:16:50;1.90;;;1.50;;
43327;SDS011;28923;45.412;10.852;2023-09-07T08:19:16;2.42;;;1.90;;
43327;SDS011;28923;45.412;10.852;2023-09-07T08:21:42;3.08;;;2.03;;
43327;SDS011;28923;45.412;10.852;2023-09-07T08:24:08;2.17;;;1.95;;
43327;SDS011;28923;45.412;10.852;2023-09-07T08:26:35;3.65;;;1.75;;
43327;SDS011;28923;45.412;10.852;2023-09-07T08:29:00;2.70;;;1.80;;
43327;SDS011;28923;45.412;10.852;2023-09-07T08:31:30;2.95;;;1.70;;
43327;SDS011;28923;45.412;10.852;2023-09-07T08:33:56;2.65;;;1.70;;
43327;SDS011;28923;45.412;10.852;2023-09-07T08:36:22;3.80;;;1.80;;
43327;SDS011;28923;45.412;10.852;2023-09-07T08:38:50;2.20;;;1.83;;
43327;SDS011;28923;45.412;10.852;2023-09-07T08:41:15;2.65;;;1.50;;
43327;SDS011;28923;45.412;10.852;2023-09-07T08:43:44;3.63;;;1.63;;
43327;SDS011;28923;45.412;10.852;2023-09-07T08:46:14;2.85;;;1.58;;
43327;SDS011;28923;45.412;10.852;2023-09-07T08:48:40;1.70;;;1.55;;
43327;SDS011;28923;45.412;10.852;2023-09-07T08:51:07;3.05;;;1.40;;
43327;SDS011;28923;45.412;10.852;2023-09-07T08:53:32;1.75;;;1.50;;
43327;SDS011;28923;45.412;10.852;2023-09-07T08:55:59;3.72;;;1.77;;
43327;SDS011;28923;45.412;10.852;2023-09-07T08:58:26;3.15;;;1.40;;
43327;SDS011;28923;45.412;10.852;2023-09-07T09:00:51;2.25;;;1.60;;
43327;SDS011;28923;45.412;10.852;2023-09-07T09:03:17;2.13;;;1.30;;
43327;SDS011;28923;45.412;10.852;2023-09-07T09:05:43;3.03;;;1.50;;
43327;SDS011;28923;45.412;10.852;2023-09-07T09:08:09;2.45;;;1.45;;
43327;SDS011;28923;45.412;10.852;2023-09-07T09:10:38;1.85;;;1.55;;
43327;SDS011;28923;45.412;10.852;2023-09-07T09:13:03;2.33;;;1.13;;
43327;SDS011;28923;45.412;10.852;2023-09-07T09:15:29;2.65;;;1.42;;
43327;SDS011;28923;45.412;10.852;2023-09-07T09:17:55;5.13;;;1.73;;
43327;SDS011;28923;45.412;10.852;2023-09-07T09:20:24;2.40;;;1.40;;
43327;SDS011;28923;45.412;10.852;2023-09-07T09:22:53;2.35;;;1.45;;
43327;SDS011;28923;45.412;10.852;2023-09-07T09:25:19;2.63;;;1.40;;
43327;SDS011;28923;45.412;10.852;2023-09-07T09:27:44;2.03;;;1.25;;
43327;SDS011;28923;45.412;10.852;2023-09-07T09:30:10;2.10;;;1.30;;
43327;SDS011;28923;45.412;10.852;2023-09-07T09:32:35;1.85;;;1.25;;
43327;SDS011;28923;45.412;10.852;2023-09-07T09:35:01;2.35;;;1.27;;
43327;SDS011;28923;45.412;10.852;2023-09-07T09:37:31;1.98;;;1.15;;
43327;SDS011;28923;45.412;10.852;2023-09-07T09:39:56;2.13;;;1.10;;
43327;SDS011;28923;45.412;10.852;2023-09-07T09:42:24;1.23;;;1.08;;
43327;SDS011;28923;45.412;10.852;2023-09-07T09:44:50;3.10;;;1.17;;
43327;SDS011;28923;45.412;10.852;2023-09-07T09:47:15;2.10;;;1.20;;
43327;SDS011;28923;45.412;10.852;2023-09-07T09:49:42;1.15;;;0.90;;
43327;SDS011;28923;45.412;10.852;2023-09-07T09:52:07;1.58;;;0.98;;
43327;SDS011;28923;45.412;10.852;2023-09-07T09:54:34;1.25;;;1.00;;
43327;SDS011;28923;45.412;10.852;2023-09-07T09:57:00;1.25;;;0.98;;
43327;SDS011;28923;45.412;10.852;2023-09-07T09:59:25;2.97;;;1.00;;
43327;SDS011;28923;45.412;10.852;2023-09-07T10:01:51;1.10;;;1.00;;
43327;SDS011;28923;45.412;10.852;2023-09-07T10:04:18;1.20;;;1.10;;
43327;SDS011;28923;45.412;10.852;2023-09-07T10:07:16;1.48;;;1.25;;
43327;SDS011;28923;45.412;10.852;2023-09-07T10:09:35;2.33;;;1.13;;
43327;SDS011;28923;45.412;10.852;2023-09-07T10:12:03;1.67;;;1.05;;
43327;SDS011;28923;45.412;10.852;2023-09-07T10:14:42;0.90;;;0.90;;
43327;SDS011;28923;45.412;10.852;2023-09-07T10:17:09;1.10;;;1.00;;
43327;SDS011;28923;45.412;10.852;2023-09-07T10:19:35;1.23;;;1.10;;
43327;SDS011;28923;45.412;10.852;2023-09-07T10:22:02;1.27;;;1.17;;
43327;SDS011;28923;45.412;10.852;2023-09-07T10:24:30;2.40;;;0.90;;
43327;SDS011;28923;45.412;10.852;2023-09-07T10:27:02;1.95;;;1.15;;
43327;SDS011;28923;45.412;10.852;2023-09-07T10:29:39;1.52;;;1.08;;
43327;SDS011;28923;45.412;10.852;2023-09-07T10:32:05;2.38;;;1.20;;
43327;SDS011;28923;45.412;10.852;2023-09-07T10:34:38;1.50;;;1.35;;
43327;SDS011;28923;45.412;10.852;2023-09-07T10:37:05;2.15;;;1.20;;
43327;SDS011;28923;45.412;10.852;2023-09-07T10:39:33;1.38;;;1.20;;
43327;SDS011;28923;45.412;10.852;2023-09-07T10:41:59;1.30;;;1.00;;
43327;SDS011;28923;45.412;10.852;2023-09-07T10:44:27;1.10;;;0.82;;
43327;SDS011;28923;45.412;10.852;2023-09-07T10:46:53;2.25;;;0.90;;
43327;SDS011;28923;45.412;10.852;2023-09-07T10:49:19;1.25;;;1.10;;
43327;SDS011;28923;45.412;10.852;2023-09-07T10:51:45;2.22;;;1.02;;
43327;SDS011;28923;45.412;10.852;2023-09-07T10:54:21;2.20;;;1.13;;
43327;SDS011;28923;45.412;10.852;2023-09-07T10:56:48;4.00;;;1.20;;
43327;SDS011;28923;45.412;10.852;2023-09-07T10:59:14;3.60;;;1.20;;
43327;SDS011;28923;45.412;10.852;2023-09-07T11:01:39;2.78;;;0.90;;
43327;SDS011;28923;45.412;10.852;2023-09-07T11:04:05;1.83;;;1.02;;
43327;SDS011;28923;45.412;10.852;2023-09-07T11:06:33;1.00;;;0.90;;
43327;SDS011;28923;45.412;10.852;2023-09-07T11:08:59;3.17;;;0.98;;
43327;SDS011;28923;45.412;10.852;2023-09-07T11:11:24;1.23;;;0.70;;
43327;SDS011;28923;45.412;10.852;2023-09-07T11:13:51;1.00;;;1.00;;
43327;SDS011;28923;45.412;10.852;2023-09-07T11:16:16;2.58;;;0.98;;
43327;SDS011;28923;45.412;10.852;2023-09-07T11:18:42;2.58;;;0.98;;
43327;SDS011;28923;45.412;10.852;2023-09-07T11:21:07;3.78;;;1.10;;
43327;SDS011;28923;45.412;10.852;2023-09-07T11:23:33;3.10;;;1.25;;
43327;SDS011;28923;45.412;10.852;2023-09-07T11:26:04;2.97;;;1.10;;
43327;SDS011;28923;45.412;10.852;2023-09-07T11:28:30;1.88;;;0.98;;
43327;SDS011;28923;45.412;10.852;2023-09-07T11:30:56;1.25;;;0.98;;
43327;SDS011;28923;45.412;10.852;2023-09-07T11:33:23;1.10;;;1.00;;
43327;SDS011;28923;45.412;10.852;2023-09-07T11:35:49;1.38;;;1.00;;
43327;SDS011;28923;45.412;10.852;2023-09-07T11:38:15;1.15;;;1.00;;
43327;SDS011;28923;45.412;10.852;2023-09-07T11:40:41;2.03;;;1.10;;
43327;SDS011;28923;45.412;10.852;2023-09-07T11:43:16;1.80;;;1.10;;
43327;SDS011;28923;45.412;10.852;2023-09-07T11:45:45;1.48;;;1.23;;
43327;SDS011;28923;45.412;10.852;2023-09-07T11:48:10;1.80;;;0.82;;
43327;SDS011;28923;45.412;10.852;2023-09-07T11:50:36;1.10;;;1.00;;
43327;SDS011;28923;45.412;10.852;2023-09-07T11:53:02;1.20;;;1.10;;
43327;SDS011;28923;45.412;10.852;2023-09-07T11:55:28;0.93;;;0.90;;
43327;SDS011;28923;45.412;10.852;2023-09-07T11:57:53;0.98;;;0.80;;
43327;SDS011;28923;45.412;10.852;2023-09-07T12:00:19;2.05;;;0.82;;
43327;SDS011;28923;45.412;10.852;2023-09-07T12:02:44;1.05;;;0.90;;
43327;SDS011;28923;45.412;10.852;2023-09-07T12:05:10;1.15;;;1.00;;
43327;SDS011;28923;45.412;10.852;2023-09-07T12:07:38;1.15;;;1.00;;
43327;SDS011;28923;45.412;10.852;2023-09-07T12:10:04;1.17;;;1.08;;
43327;SDS011;28923;45.412;10.852;2023-09-07T12:12:29;1.77;;;1.00;;
43327;SDS011;28923;45.412;10.852;2023-09-07T12:14:54;1.05;;;0.98;;
43327;SDS011;28923;45.412;10.852;2023-09-07T12:17:21;2.03;;;0.88;;
43327;SDS011;28923;45.412;10.852;2023-09-07T12:19:47;1.13;;;0.93;;
43327;SDS011;28923;45.412;10.852;2023-09-07T12:22:12;1.23;;;0.90;;
43327;SDS011;28923;45.412;10.852;2023-09-07T12:24:38;1.42;;;0.90;;
43327;SDS011;28923;45.412;10.852;2023-09-07T12:27:03;1.42;;;1.00;;
43327;SDS011;28923;45.412;10.852;2023-09-07T12:29:29;0.90;;;0.90;;
43327;SDS011;28923;45.412;10.852;2023-09-07T12:31:54;1.42;;;0.90;;
43327;SDS011;28923;45.412;10.852;2023-09-07T12:34:20;0.82;;;0.80;;
43327;SDS011;28923;45.412;10.852;2023-09-07T12:36:45;1.38;;;0.85;;
43327;SDS011;28923;45.412;10.852;2023-09-07T12:39:10;0.90;;;0.90;;
43327;SDS011;28923;45.412;10.852;2023-09-07T12:41:38;4.03;;;1.00;;
43327;SDS011;28923;45.412;10.852;2023-09-07T12:44:03;1.13;;;1.02;;
43327;SDS011;28923;45.412;10.852;2023-09-07T12:46:29;1.92;;;0.88;;
43327;SDS011;28923;45.412;10.852;2023-09-07T12:48:54;2.30;;;1.00;;
43327;SDS011;28923;45.412;10.852;2023-09-07T12:51:19;1.13;;;0.90;;
43327;SDS011;28923;45.412;10.852;2023-09-07T12:53:45;1.30;;;0.90;;
43327;SDS011;28923;45.412;10.852;2023-09-07T12:56:10;1.05;;;0.98;;
43327;SDS011;28923;45.412;10.852;2023-09-07T12:58:36;2.20;;;0.93;;
43327;SDS011;28923;45.412;10.852;2023-09-07T13:01:02;1.73;;;1.10;;
43327;SDS011;28923;45.412;10.852;2023-09-07T13:03:28;1.55;;;1.08;;
43327;SDS011;28923;45.412;10.852;2023-09-07T13:05:53;0.95;;;0.80;;
43327;SDS011;28923;45.412;10.852;2023-09-07T13:08:18;1.52;;;1.15;;
43327;SDS011;28923;45.412;10.852;2023-09-07T13:10:45;0.80;;;0.80;;
43327;SDS011;28923;45.412;10.852;2023-09-07T13:13:13;1.08;;;0.90;;
43327;SDS011;28923;45.412;10.852;2023-09-07T13:15:39;1.20;;;0.88;;
43327;SDS011;28923;45.412;10.852;2023-09-07T13:18:04;1.13;;;0.77;;
43327;SDS011;28923;45.412;10.852;2023-09-07T13:20:30;0.95;;;0.65;;
43327;SDS011;28923;45.412;10.852;2023-09-07T13:22:55;1.10;;;1.08;;
43327;SDS011;28923;45.412;10.852;2023-09-07T13:25:21;0.80;;;0.80;;
43327;SDS011;28923;45.412;10.852;2023-09-07T13:27:47;0.88;;;0.88;;
43327;SDS011;28923;45.412;10.852;2023-09-07T13:30:12;3.13;;;0.98;;
43327;SDS011;28923;45.412;10.852;2023-09-07T13:32:38;1.08;;;0.88;;
43327;SDS011;28923;45.412;10.852;2023-09-07T13:35:03;1.75;;;1.00;;
43327;SDS011;28923;45.412;10.852;2023-09-07T13:37:29;1.10;;;0.88;;
43327;SDS011;28923;45.412;10.852;2023-09-07T13:39:55;1.00;;;0.88;;
43327;SDS011;28923;45.412;10.852;2023-09-07T13:42:20;0.75;;;0.75;;
43327;SDS011;28923;45.412;10.852;2023-09-07T13:44:45;1.02;;;0.90;;
43327;SDS011;28923;45.412;10.852;2023-09-07T13:47:12;2.85;;;1.10;;
43327;SDS011;28923;45.412;10.852;2023-09-07T13:49:38;3.83;;;1.00;;
43327;SDS011;28923;45.412;10.852;2023-09-07T13:52:04;2.15;;;0.98;;
43327;SDS011;28923;45.412;10.852;2023-09-07T13:54:29;1.98;;;0.90;;
43327;SDS011;28923;45.412;10.852;2023-09-07T13:56:55;1.08;;;0.98;;
43327;SDS011;28923;45.412;10.852;2023-09-07T13:59:21;1.05;;;1.00;;
43327;SDS011;28923;45.412;10.852;2023-09-07T14:01:46;1.17;;;0.88;;
43327;SDS011;28923;45.412;10.852;2023-09-07T14:04:12;0.82;;;0.82;;
43327;SDS011;28923;45.412;10.852;2023-09-07T14:06:37;1.20;;;1.10;;
43327;SDS011;28923;45.412;10.852;2023-09-07T14:09:02;2.30;;;1.00;;
43327;SDS011;28923;45.412;10.852;2023-09-07T14:11:28;0.80;;;0.80;;
43327;SDS011;28923;45.412;10.852;2023-09-07T14:13:53;0.90;;;0.90;;
43327;SDS011;28923;45.412;10.852;2023-09-07T14:16:19;1.13;;;1.00;;
43327;SDS011;28923;45.412;10.852;2023-09-07T14:18:45;2.30;;;1.08;;
43327;SDS011;28923;45.412;10.852;2023-09-07T14:21:12;1.30;;;0.90;;
43327;SDS011;28923;45.412;10.852;2023-09-07T14:23:37;1.33;;;0.68;;
43327;SDS011;28923;45.412;10.852;2023-09-07T14:26:03;1.15;;;0.88;;
43327;SDS011;28923;45.412;10.852;2023-09-07T14:28:28;1.73;;;1.00;;
43327;SDS011;28923;45.412;10.852;2023-09-07T14:30:53;1.05;;;0.95;;
43327;SDS011;28923;45.412;10.852;2023-09-07T14:33:19;2.67;;;0.80;;
43327;SDS011;28923;45.412;10.852;2023-09-07T14:35:45;1.90;;;1.00;;
43327;SDS011;28923;45.412;10.852;2023-09-07T14:38:12;1.88;;;1.10;;
43327;SDS011;28923;45.412;10.852;2023-09-07T14:40:37;1.48;;;1.00;;
43327;SDS011;28923;45.412;10.852;2023-09-07T14:43:03;1.38;;;0.90;;
43327;SDS011;28923;45.412;10.852;2023-09-07T14:45:29;1.83;;;1.00;;
43327;SDS011;28923;45.412;10.852;2023-09-07T14:47:54;0.77;;;0.77;;
43327;SDS011;28923;45.412;10.852;2023-09-07T14:50:20;0.95;;;0.90;;
43327;SDS011;28923;45.412;10.852;2023-09-07T14:52:45;1.52;;;0.90;;
43327;SDS011;28923;45.412;10.852;2023-09-07T14:55:13;3.72;;;0.95;;
43327;SDS011;28923;45.412;10.852;2023-09-07T14:57:40;2.15;;;1.58;;
43327;SDS011;28923;45.412;10.852;2023-09-07T15:00:05;1.27;;;0.90;;
43327;SDS011;28923;45.412;10.852;2023-09-07T15:02:31;2.10;;;1.00;;
43327;SDS011;28923;45.412;10.852;2023-09-07T15:04:56;2.05;;;1.20;;
43327;SDS011;28923;45.412;10.852;2023-09-07T15:07:22;3.20;;;1.17;;
43327;SDS011;28923;45.412;10.852;2023-09-07T15:09:49;1.33;;;1.00;;
43327;SDS011;28923;45.412;10.852;2023-09-07T15:12:14;3.88;;;1.10;;
43327;SDS011;28923;45.412;10.852;2023-09-07T15:14:40;3.53;;;1.10;;
43327;SDS011;28923;45.412;10.852;2023-09-07T15:17:05;1.42;;;1.15;;
43327;SDS011;28923;45.412;10.852;2023-09-07T15:19:30;1.67;;;1.25;;
43327;SDS011;28923;45.412;10.852;2023-09-07T15:21:59;1.27;;;1.08;;
43327;SDS011;28923;45.412;10.852;2023-09-07T15:24:24;2.42;;;1.23;;
43327;SDS011;28923;45.412;10.852;2023-09-07T15:26:49;1.67;;;1.08;;
43327;SDS011;28923;45.412;10.852;2023-09-07T15:29:15;1.73;;;1.20;;
43327;SDS011;28923;45.412;10.852;2023-09-07T15:31:40;2.95;;;1.42;;
43327;SDS011;28923;45.412;10.852;2023-09-07T15:34:06;1.70;;;1.10;;
43327;SDS011;28923;45.412;10.852;2023-09-07T15:36:31;2.15;;;1.30;;
43327;SDS011;28923;45.412;10.852;2023-09-07T15:39:00;1.52;;;0.98;;
43327;SDS011;28923;45.412;10.852;2023-09-07T15:41:25;1.20;;;1.08;;
43327;SDS011;28923;45.412;10.852;2023-09-07T15:43:51;4.32;;;1.77;;
43327;SDS011;28923;45.412;10.852;2023-09-07T15:46:16;1.42;;;1.30;;
43327;SDS011;28923;45.412;10.852;2023-09-07T15:48:41;3.60;;;1.00;;
43327;SDS011;28923;45.412;10.852;2023-09-07T15:51:07;3.95;;;1.55;;
43327;SDS011;28923;45.412;10.852;2023-09-07T15:53:33;4.15;;;1.52;;
43327;SDS011;28923;45.412;10.852;2023-09-07T15:55:58;6.70;;;2.15;;
43327;SDS011;28923;45.412;10.852;2023-09-07T15:58:24;7.80;;;2.67;;
43327;SDS011;28923;45.412;10.852;2023-09-07T16:00:51;8.55;;;2.80;;
43327;SDS011;28923;45.412;10.852;2023-09-07T16:03:16;5.25;;;2.47;;
43327;SDS011;28923;45.412;10.852;2023-09-07T16:05:42;5.68;;;2.20;;
43327;SDS011;28923;45.412;10.852;2023-09-07T16:08:07;6.43;;;2.40;;
43327;SDS011;28923;45.412;10.852;2023-09-07T16:10:33;7.22;;;2.33;;
43327;SDS011;28923;45.412;10.852;2023-09-07T16:13:01;4.28;;;2.20;;
43327;SDS011;28923;45.412;10.852;2023-09-07T16:15:26;9.65;;;2.63;;
43327;SDS011;28923;45.412;10.852;2023-09-07T16:17:52;4.70;;;1.98;;
43327;SDS011;28923;45.412;10.852;2023-09-07T16:20:18;6.28;;;2.45;;
43327;SDS011;28923;45.412;10.852;2023-09-07T16:22:43;8.93;;;2.30;;
43327;SDS011;28923;45.412;10.852;2023-09-07T16:25:08;6.15;;;2.00;;
43327;SDS011;28923;45.412;10.852;2023-09-07T16:27:34;4.40;;;2.08;;
43327;SDS011;28923;45.412;10.852;2023-09-07T16:30:04;5.72;;;2.25;;
43327;SDS011;28923;45.412;10.852;2023-09-07T16:32:30;6.65;;;2.33;;
43327;SDS011;28923;45.412;10.852;2023-09-07T16:34:55;6.10;;;2.42;;
43327;SDS011;28923;45.412;10.852;2023-09-07T16:37:20;8.77;;;2.50;;
43327;SDS011;28923;45.412;10.852;2023-09-07T16:39:51;5.88;;;2.72;;
43327;SDS011;28923;45.412;10.852;2023-09-07T16:42:17;7.10;;;2.55;;
43327;SDS011;28923;45.412;10.852;2023-09-07T16:44:42;6.63;;;2.30;;
43327;SDS011;28923;45.412;10.852;2023-09-07T16:47:08;7.10;;;2.38;;
43327;SDS011;28923;45.412;10.852;2023-09-07T16:49:33;3.80;;;2.00;;
43327;SDS011;28923;45.412;10.852;2023-09-07T16:51:59;4.90;;;2.55;;
43327;SDS011;28923;45.412;10.852;2023-09-07T16:54:24;4.13;;;2.25;;
43327;SDS011;28923;45.412;10.852;2023-09-07T16:56:50;2.70;;;2.20;;
43327;SDS011;28923;45.412;10.852;2023-09-07T16:59:15;5.68;;;2.60;;
43327;SDS011;28923;45.412;10.852;2023-09-07T17:01:41;4.00;;;2.42;;
43327;SDS011;28923;45.412;10.852;2023-09-07T17:04:07;3.72;;;2.53;;
43327;SDS011;28923;45.412;10.852;2023-09-07T17:06:32;3.88;;;2.42;;
43327;SDS011;28923;45.412;10.852;2023-09-07T17:08:58;5.35;;;2.40;;
43327;SDS011;28923;45.412;10.852;2023-09-07T17:11:27;7.18;;;2.33;;
43327;SDS011;28923;45.412;10.852;2023-09-07T17:13:52;6.03;;;2.28;;
43327;SDS011;28923;45.412;10.852;2023-09-07T17:16:18;2.35;;;1.98;;
43327;SDS011;28923;45.412;10.852;2023-09-07T17:18:43;5.68;;;2.40;;
43327;SDS011;28923;45.412;10.852;2023-09-07T17:21:08;3.92;;;2.20;;
43327;SDS011;28923;45.412;10.852;2023-09-07T17:23:34;3.67;;;2.35;;
43327;SDS011;28923;45.412;10.852;2023-09-07T17:26:03;6.95;;;2.67;;
43327;SDS011;28923;45.412;10.852;2023-09-07T17:28:28;5.22;;;2.22;;
43327;SDS011;28923;45.412;10.852;2023-09-07T17:30:54;6.85;;;2.47;;
43327;SDS011;28923;45.412;10.852;2023-09-07T17:33:20;4.60;;;2.33;;
43327;SDS011;28923;45.412;10.852;2023-09-07T17:35:45;5.10;;;2.42;;
43327;SDS011;28923;45.412;10.852;2023-09-07T17:38:11;6.03;;;2.10;;
43327;SDS011;28923;45.412;10.852;2023-09-07T17:40:36;3.67;;;2.33;;
43327;SDS011;28923;45.412;10.852;2023-09-07T17:43:02;5.60;;;2.38;;
43327;SDS011;28923;45.412;10.852;2023-09-07T17:45:27;3.38;;;2.20;;
43327;SDS011;28923;45.412;10.852;2023-09-07T17:47:52;2.92;;;2.28;;
43327;SDS011;28923;45.412;10.852;2023-09-07T17:50:18;3.95;;;2.25;;
43327;SDS011;28923;45.412;10.852;2023-09-07T17:52:43;2.75;;;2.10;;
43327;SDS011;28923;45.412;10.852;2023-09-07T17:55:09;7.10;;;2.47;;
43327;SDS011;28923;45.412;10.852;2023-09-07T17:57:35;3.03;;;2.30;;
43327;SDS011;28923;45.412;10.852;2023-09-07T18:00:01;5.28;;;2.17;;
43327;SDS011;28923;45.412;10.852;2023-09-07T18:02:27;3.67;;;2.30;;
43327;SDS011;28923;45.412;10.852;2023-09-07T18:04:55;4.45;;;2.30;;
43327;SDS011;28923;45.412;10.852;2023-09-07T18:07:21;3.58;;;2.17;;
43327;SDS011;28923;45.412;10.852;2023-09-07T18:09:46;4.80;;;2.50;;
43327;SDS011;28923;45.412;10.852;2023-09-07T18:12:12;4.35;;;2.25;;
43327;SDS011;28923;45.412;10.852;2023-09-07T18:14:37;4.68;;;2.10;;
43327;SDS011;28923;45.412;10.852;2023-09-07T18:17:03;2.40;;;2.00;;
43327;SDS011;28923;45.412;10.852;2023-09-07T18:19:29;3.22;;;2.45;;
43327;SDS011;28923;45.412;10.852;2023-09-07T18:21:54;4.38;;;2.03;;
43327;SDS011;28923;45.412;10.852;2023-09-07T18:24:19;2.38;;;1.80;;
43327;SDS011;28923;45.412;10.852;2023-09-07T18:26:45;2.50;;;1.98;;
43327;SDS011;28923;45.412;10.852;2023-09-07T18:29:14;3.35;;;2.42;;
43327;SDS011;28923;45.412;10.852;2023-09-07T18:31:40;4.72;;;2.03;;